sensor_id;sensor_type;location;lat;lon;timestamp;P1;durP1;ratioP1;P2;durP2;ratioP2
33830;SDS011;20137;48.834;8.732;2023-03-04T00:00:21;51.03;;;23.52;;
33830;SDS011;20137;48.834;8.732;2023-03-04T00:02:47;54.47;;;25.08;;
33830;SDS011;20137;48.834;8.732;2023-03-04T00:05:13;58.38;;;26.42;;
33830;SDS011;20137;48.834;8.732;2023-03-04T00:07:38;60.72;;;25.08;;
33830;SDS011;20137;48.834;8.732;2023-03-04T00:10:04;51.55;;;23.23;;
33830;SDS011;20137;48.834;8.732;2023-03-04T00:12:30;51.67;;;22.70;;
33830;SDS011;20137;48.834;8.732;2023-03-04T00:14:56;51.35;;;22.95;;
33830;SDS011;20137;48.834;8.732;2023-03-04T00:17:22;55.15;;;22.88;;
33830;SDS011;20137;48.834;8.732;2023-03-04T00:19:48;54.28;;;23.20;;
33830;SDS011;20137;48.834;8.732;2023-03-04T00:22:13;50.08;;;21.60;;
33830;SDS011;20137;48.834;8.732;2023-03-04T00:24:39;50.33;;;23.50;;
33830;SDS011;20137;48.834;8.732;2023-03-04T00:27:05;50.50;;;22.25;;
33830;SDS011;20137;48.834;8.732;2023-03-04T00:29:31;50.75;;;21.90;;
33830;SDS011;20137;48.834;8.732;2023-03-04T00:31:56;54.97;;;22.50;;
33830;SDS011;20137;48.834;8.732;2023-03-04T00:34:22;52.78;;;23.63;;
33830;SDS011;20137;48.834;8.732;2023-03-04T00:36:48;48.15;;;21.58;;
33830;SDS011;20137;48.834;8.732;2023-03-04T00:39:14;52.70;;;22.75;;
33830;SDS011;20137;48.834;8.732;2023-03-04T00:41:40;50.80;;;22.85;;
33830;SDS011;20137;48.834;8.732;2023-03-04T00:44:06;48.50;;;21.63;;
33830;SDS011;20137;48.834;8.732;2023-03-04T00:46:31;54.92;;;23.98;;
33830;SDS011;20137;48.834;8.732;2023-03-04T00:48:57;52.20;;;22.23;;
33830;SDS011;20137;48.834;8.732;2023-03-04T00:51:22;53.08;;;23.15;;
33830;SDS011;20137;48.834;8.732;2023-03-04T00:53:48;52.33;;;22.65;;
33830;SDS011;20137;48.834;8.732;2023-03-04T00:56:16;51.15;;;22.33;;
33830;SDS011;20137;48.834;8.732;2023-03-04T00:58:42;49.78;;;22.42;;
33830;SDS011;20137;48.834;8.732;2023-03-04T01:01:07;51.28;;;23.00;;
33830;SDS011;20137;48.834;8.732;2023-03-04T01:03:33;56.85;;;24.13;;
33830;SDS011;20137;48.834;8.732;2023-03-04T01:05:59;53.08;;;23.27;;
33830;SDS011;20137;48.834;8.732;2023-03-04T01:08:25;53.83;;;24.52;;
33830;SDS011;20137;48.834;8.732;2023-03-04T01:10:51;58.90;;;23.88;;
33830;SDS011;20137;48.834;8.732;2023-03-04T01:13:17;52.42;;;24.08;;
33830;SDS011;20137;48.834;8.732;2023-03-04T01:15:42;55.65;;;23.02;;
33830;SDS011;20137;48.834;8.732;2023-03-04T01:18:08;54.03;;;23.88;;
33830;SDS011;20137;48.834;8.732;2023-03-04T01:20:34;52.67;;;23.55;;
33830;SDS011;20137;48.834;8.732;2023-03-04T01:23:00;60.80;;;24.08;;
33830;SDS011;20137;48.834;8.732;2023-03-04T01:25:25;58.25;;;23.83;;
33830;SDS011;20137;48.834;8.732;2023-03-04T01:27:51;54.38;;;23.38;;
33830;SDS011;20137;48.834;8.732;2023-03-04T01:30:17;57.22;;;23.25;;
33830;SDS011;20137;48.834;8.732;2023-03-04T01:32:42;54.17;;;23.35;;
33830;SDS011;20137;48.834;8.732;2023-03-04T01:35:08;54.75;;;23.13;;
33830;SDS011;20137;48.834;8.732;2023-03-04T01:37:34;59.78;;;25.33;;
33830;SDS011;20137;48.834;8.732;2023-03-04T01:40:00;55.83;;;22.48;;
33830;SDS011;20137;48.834;8.732;2023-03-04T01:42:26;51.58;;;23.23;;
33830;SDS011;20137;48.834;8.732;2023-03-04T01:44:57;51.40;;;23.75;;
33830;SDS011;20137;48.834;8.732;2023-03-04T01:47:23;59.13;;;24.90;;
33830;SDS011;20137;48.834;8.732;2023-03-04T01:49:53;54.05;;;22.90;;
33830;SDS011;20137;48.834;8.732;2023-03-04T01:52:20;56.22;;;23.70;;
33830;SDS011;20137;48.834;8.732;2023-03-04T01:54:46;59.70;;;24.08;;
33830;SDS011;20137;48.834;8.732;2023-03-04T01:57:20;51.90;;;23.42;;
33830;SDS011;20137;48.834;8.732;2023-03-04T02:00:06;55.10;;;23.70;;
33830;SDS011;20137;48.834;8.732;2023-03-04T02:02:41;61.72;;;24.77;;
33830;SDS011;20137;48.834;8.732;2023-03-04T02:05:07;53.95;;;22.95;;
33830;SDS011;20137;48.834;8.732;2023-03-04T02:07:33;55.58;;;24.30;;
33830;SDS011;20137;48.834;8.732;2023-03-04T02:09:59;55.45;;;23.17;;
33830;SDS011;20137;48.834;8.732;2023-03-04T02:12:25;60.97;;;24.45;;
33830;SDS011;20137;48.834;8.732;2023-03-04T02:14:51;53.28;;;23.35;;
33830;SDS011;20137;48.834;8.732;2023-03-04T02:17:23;57.55;;;24.50;;
33830;SDS011;20137;48.834;8.732;2023-03-04T02:19:56;52.60;;;23.13;;
33830;SDS011;20137;48.834;8.732;2023-03-04T02:22:25;55.50;;;23.85;;
33830;SDS011;20137;48.834;8.732;2023-03-04T02:24:52;64.95;;;25.52;;
33830;SDS011;20137;48.834;8.732;2023-03-04T02:27:21;59.38;;;25.30;;
33830;SDS011;20137;48.834;8.732;2023-03-04T02:29:47;55.50;;;23.20;;
33830;SDS011;20137;48.834;8.732;2023-03-04T02:32:12;65.70;;;25.55;;
33830;SDS011;20137;48.834;8.732;2023-03-04T02:34:44;58.78;;;25.17;;
33830;SDS011;20137;48.834;8.732;2023-03-04T02:37:11;57.25;;;25.17;;
33830;SDS011;20137;48.834;8.732;2023-03-04T02:39:41;60.75;;;26.60;;
33830;SDS011;20137;48.834;8.732;2023-03-04T02:42:09;63.42;;;25.85;;
33830;SDS011;20137;48.834;8.732;2023-03-04T02:44:35;61.83;;;26.38;;
33830;SDS011;20137;48.834;8.732;2023-03-04T02:47:04;67.00;;;27.75;;
33830;SDS011;20137;48.834;8.732;2023-03-04T02:49:31;71.95;;;27.10;;
33830;SDS011;20137;48.834;8.732;2023-03-04T02:52:03;64.47;;;27.45;;
33830;SDS011;20137;48.834;8.732;2023-03-04T02:54:33;70.53;;;27.67;;
33830;SDS011;20137;48.834;8.732;2023-03-04T02:57:00;66.43;;;27.55;;
33830;SDS011;20137;48.834;8.732;2023-03-04T02:59:28;66.18;;;28.20;;
33830;SDS011;20137;48.834;8.732;2023-03-04T03:01:55;68.93;;;28.67;;
33830;SDS011;20137;48.834;8.732;2023-03-04T03:04:21;72.70;;;28.23;;
33830;SDS011;20137;48.834;8.732;2023-03-04T03:06:48;67.95;;;27.40;;
33830;SDS011;20137;48.834;8.732;2023-03-04T03:09:14;74.28;;;28.60;;
33830;SDS011;20137;48.834;8.732;2023-03-04T03:11:40;62.47;;;28.63;;
33830;SDS011;20137;48.834;8.732;2023-03-04T03:14:06;76.13;;;28.63;;
33830;SDS011;20137;48.834;8.732;2023-03-04T03:16:32;71.03;;;27.98;;
33830;SDS011;20137;48.834;8.732;2023-03-04T03:18:58;71.32;;;29.88;;
33830;SDS011;20137;48.834;8.732;2023-03-04T03:21:24;72.85;;;28.85;;
33830;SDS011;20137;48.834;8.732;2023-03-04T03:23:49;75.07;;;30.35;;
33830;SDS011;20137;48.834;8.732;2023-03-04T03:26:15;72.82;;;29.40;;
33830;SDS011;20137;48.834;8.732;2023-03-04T03:28:41;70.35;;;28.58;;
33830;SDS011;20137;48.834;8.732;2023-03-04T03:31:07;75.30;;;28.92;;
33830;SDS011;20137;48.834;8.732;2023-03-04T03:33:33;73.25;;;29.00;;
33830;SDS011;20137;48.834;8.732;2023-03-04T03:35:58;77.65;;;29.55;;
33830;SDS011;20137;48.834;8.732;2023-03-04T03:38:24;76.13;;;30.58;;
33830;SDS011;20137;48.834;8.732;2023-03-04T03:40:50;77.70;;;28.20;;
33830;SDS011;20137;48.834;8.732;2023-03-04T03:43:15;75.85;;;30.38;;
33830;SDS011;20137;48.834;8.732;2023-03-04T03:45:41;69.20;;;30.35;;
33830;SDS011;20137;48.834;8.732;2023-03-04T03:48:07;76.88;;;30.55;;
33830;SDS011;20137;48.834;8.732;2023-03-04T03:50:32;75.63;;;29.75;;
33830;SDS011;20137;48.834;8.732;2023-03-04T03:52:58;78.20;;;30.38;;
33830;SDS011;20137;48.834;8.732;2023-03-04T03:55:24;77.35;;;29.77;;
33830;SDS011;20137;48.834;8.732;2023-03-04T03:57:50;70.40;;;28.42;;
33830;SDS011;20137;48.834;8.732;2023-03-04T04:00:16;80.28;;;31.10;;
33830;SDS011;20137;48.834;8.732;2023-03-04T04:02:42;72.82;;;29.08;;
33830;SDS011;20137;48.834;8.732;2023-03-04T04:05:08;71.95;;;28.25;;
33830;SDS011;20137;48.834;8.732;2023-03-04T04:07:34;71.55;;;28.25;;
33830;SDS011;20137;48.834;8.732;2023-03-04T04:10:00;74.95;;;29.38;;
33830;SDS011;20137;48.834;8.732;2023-03-04T04:12:26;73.63;;;30.27;;
33830;SDS011;20137;48.834;8.732;2023-03-04T04:14:52;71.53;;;29.45;;
33830;SDS011;20137;48.834;8.732;2023-03-04T04:17:18;71.32;;;29.55;;
33830;SDS011;20137;48.834;8.732;2023-03-04T04:19:43;79.07;;;30.08;;
33830;SDS011;20137;48.834;8.732;2023-03-04T04:22:13;79.05;;;28.45;;
33830;SDS011;20137;48.834;8.732;2023-03-04T04:24:40;71.38;;;27.90;;
33830;SDS011;20137;48.834;8.732;2023-03-04T04:27:06;74.25;;;29.92;;
33830;SDS011;20137;48.834;8.732;2023-03-04T04:29:32;75.70;;;29.42;;
33830;SDS011;20137;48.834;8.732;2023-03-04T04:31:57;75.00;;;28.23;;
33830;SDS011;20137;48.834;8.732;2023-03-04T04:34:24;71.75;;;29.10;;
33830;SDS011;20137;48.834;8.732;2023-03-04T04:36:50;81.85;;;28.85;;
33830;SDS011;20137;48.834;8.732;2023-03-04T04:39:15;76.10;;;30.10;;
33830;SDS011;20137;48.834;8.732;2023-03-04T04:41:41;82.20;;;30.50;;
33830;SDS011;20137;48.834;8.732;2023-03-04T04:44:08;73.35;;;29.58;;
33830;SDS011;20137;48.834;8.732;2023-03-04T04:46:35;69.65;;;27.80;;
33830;SDS011;20137;48.834;8.732;2023-03-04T04:49:01;79.20;;;30.15;;
33830;SDS011;20137;48.834;8.732;2023-03-04T04:51:27;68.82;;;29.40;;
33830;SDS011;20137;48.834;8.732;2023-03-04T04:53:53;75.07;;;29.92;;
33830;SDS011;20137;48.834;8.732;2023-03-04T04:56:20;76.97;;;29.67;;
33830;SDS011;20137;48.834;8.732;2023-03-04T04:58:50;75.65;;;30.50;;
33830;SDS011;20137;48.834;8.732;2023-03-04T05:01:17;76.00;;;29.17;;
33830;SDS011;20137;48.834;8.732;2023-03-04T05:03:43;78.55;;;31.17;;
33830;SDS011;20137;48.834;8.732;2023-03-04T05:06:09;67.63;;;28.48;;
33830;SDS011;20137;48.834;8.732;2023-03-04T05:08:36;78.22;;;29.08;;
33830;SDS011;20137;48.834;8.732;2023-03-04T05:11:03;71.88;;;29.60;;
33830;SDS011;20137;48.834;8.732;2023-03-04T05:13:29;74.18;;;30.15;;
33830;SDS011;20137;48.834;8.732;2023-03-04T05:15:55;79.88;;;32.10;;
33830;SDS011;20137;48.834;8.732;2023-03-04T05:18:22;79.50;;;30.92;;
33830;SDS011;20137;48.834;8.732;2023-03-04T05:20:53;77.68;;;30.48;;
33830;SDS011;20137;48.834;8.732;2023-03-04T05:23:20;79.97;;;31.52;;
33830;SDS011;20137;48.834;8.732;2023-03-04T05:25:46;83.45;;;30.17;;
33830;SDS011;20137;48.834;8.732;2023-03-04T05:28:12;79.03;;;31.50;;
33830;SDS011;20137;48.834;8.732;2023-03-04T05:30:39;82.82;;;31.83;;
33830;SDS011;20137;48.834;8.732;2023-03-04T05:33:06;83.65;;;32.75;;
33830;SDS011;20137;48.834;8.732;2023-03-04T05:35:33;80.05;;;31.55;;
33830;SDS011;20137;48.834;8.732;2023-03-04T05:38:00;81.22;;;32.33;;
33830;SDS011;20137;48.834;8.732;2023-03-04T05:40:26;86.55;;;32.63;;
33830;SDS011;20137;48.834;8.732;2023-03-04T05:42:52;81.60;;;31.13;;
33830;SDS011;20137;48.834;8.732;2023-03-04T05:45:17;86.47;;;31.50;;
33830;SDS011;20137;48.834;8.732;2023-03-04T05:47:43;81.28;;;33.38;;
33830;SDS011;20137;48.834;8.732;2023-03-04T05:50:09;84.07;;;31.00;;
33830;SDS011;20137;48.834;8.732;2023-03-04T05:52:35;80.45;;;30.30;;
33830;SDS011;20137;48.834;8.732;2023-03-04T05:55:01;83.40;;;31.25;;
33830;SDS011;20137;48.834;8.732;2023-03-04T05:57:26;74.30;;;30.60;;
33830;SDS011;20137;48.834;8.732;2023-03-04T05:59:52;84.43;;;32.60;;
33830;SDS011;20137;48.834;8.732;2023-03-04T06:02:17;75.30;;;29.90;;
33830;SDS011;20137;48.834;8.732;2023-03-04T06:04:43;84.93;;;32.45;;
33830;SDS011;20137;48.834;8.732;2023-03-04T06:07:09;79.32;;;29.35;;
33830;SDS011;20137;48.834;8.732;2023-03-04T06:09:34;77.93;;;31.20;;
33830;SDS011;20137;48.834;8.732;2023-03-04T06:12:00;87.30;;;31.90;;
33830;SDS011;20137;48.834;8.732;2023-03-04T06:14:26;81.30;;;30.10;;
33830;SDS011;20137;48.834;8.732;2023-03-04T06:16:52;77.07;;;30.48;;
33830;SDS011;20137;48.834;8.732;2023-03-04T06:19:17;76.90;;;29.35;;
33830;SDS011;20137;48.834;8.732;2023-03-04T06:21:43;83.75;;;31.27;;
33830;SDS011;20137;48.834;8.732;2023-03-04T06:24:08;84.15;;;30.40;;
33830;SDS011;20137;48.834;8.732;2023-03-04T06:26:34;85.90;;;31.73;;
33830;SDS011;20137;48.834;8.732;2023-03-04T06:29:00;85.43;;;32.08;;
33830;SDS011;20137;48.834;8.732;2023-03-04T06:31:25;96.88;;;33.85;;
33830;SDS011;20137;48.834;8.732;2023-03-04T06:33:51;93.97;;;34.90;;
33830;SDS011;20137;48.834;8.732;2023-03-04T06:36:16;95.40;;;34.97;;
33830;SDS011;20137;48.834;8.732;2023-03-04T06:38:42;124.30;;;34.47;;
33830;SDS011;20137;48.834;8.732;2023-03-04T06:41:08;117.35;;;34.88;;
33830;SDS011;20137;48.834;8.732;2023-03-04T06:43:36;144.68;;;34.60;;
33830;SDS011;20137;48.834;8.732;2023-03-04T06:46:02;224.30;;;38.92;;
33830;SDS011;20137;48.834;8.732;2023-03-04T06:48:28;111.00;;;33.90;;
33830;SDS011;20137;48.834;8.732;2023-03-04T06:50:54;101.53;;;33.05;;
33830;SDS011;20137;48.834;8.732;2023-03-04T06:53:20;108.00;;;35.25;;
33830;SDS011;20137;48.834;8.732;2023-03-04T06:55:46;102.53;;;33.97;;
33830;SDS011;20137;48.834;8.732;2023-03-04T06:58:13;101.95;;;35.95;;
33830;SDS011;20137;48.834;8.732;2023-03-04T07:00:39;106.65;;;35.72;;
33830;SDS011;20137;48.834;8.732;2023-03-04T07:03:05;109.70;;;34.30;;
33830;SDS011;20137;48.834;8.732;2023-03-04T07:05:30;87.20;;;32.67;;
33830;SDS011;20137;48.834;8.732;2023-03-04T07:07:56;109.55;;;35.45;;
33830;SDS011;20137;48.834;8.732;2023-03-04T07:10:22;98.22;;;33.58;;
33830;SDS011;20137;48.834;8.732;2023-03-04T07:12:47;84.55;;;33.17;;
33830;SDS011;20137;48.834;8.732;2023-03-04T07:15:13;92.82;;;33.90;;
33830;SDS011;20137;48.834;8.732;2023-03-04T07:17:38;90.28;;;33.13;;
33830;SDS011;20137;48.834;8.732;2023-03-04T07:20:04;80.85;;;30.95;;
33830;SDS011;20137;48.834;8.732;2023-03-04T07:22:30;81.63;;;32.03;;
33830;SDS011;20137;48.834;8.732;2023-03-04T07:24:56;93.20;;;33.03;;
33830;SDS011;20137;48.834;8.732;2023-03-04T07:27:22;87.43;;;33.00;;
33830;SDS011;20137;48.834;8.732;2023-03-04T07:29:48;82.07;;;32.05;;
33830;SDS011;20137;48.834;8.732;2023-03-04T07:32:13;86.65;;;32.85;;
33830;SDS011;20137;48.834;8.732;2023-03-04T07:34:39;85.80;;;32.85;;
33830;SDS011;20137;48.834;8.732;2023-03-04T07:37:05;94.32;;;34.08;;
33830;SDS011;20137;48.834;8.732;2023-03-04T07:39:30;88.68;;;32.42;;
33830;SDS011;20137;48.834;8.732;2023-03-04T07:41:56;83.25;;;31.52;;
33830;SDS011;20137;48.834;8.732;2023-03-04T07:44:21;75.68;;;30.55;;
33830;SDS011;20137;48.834;8.732;2023-03-04T07:46:47;76.13;;;29.27;;
33830;SDS011;20137;48.834;8.732;2023-03-04T07:49:13;71.60;;;30.02;;
33830;SDS011;20137;48.834;8.732;2023-03-04T07:51:38;72.13;;;28.02;;
33830;SDS011;20137;48.834;8.732;2023-03-04T07:54:05;77.22;;;30.13;;
33830;SDS011;20137;48.834;8.732;2023-03-04T07:56:31;76.25;;;30.63;;
33830;SDS011;20137;48.834;8.732;2023-03-04T07:58:58;75.07;;;29.55;;
33830;SDS011;20137;48.834;8.732;2023-03-04T08:01:28;78.30;;;30.63;;
33830;SDS011;20137;48.834;8.732;2023-03-04T08:03:56;67.13;;;28.23;;
33830;SDS011;20137;48.834;8.732;2023-03-04T08:06:22;70.90;;;29.08;;
33830;SDS011;20137;48.834;8.732;2023-03-04T08:08:49;69.72;;;28.60;;
33830;SDS011;20137;48.834;8.732;2023-03-04T08:11:20;68.75;;;28.45;;
33830;SDS011;20137;48.834;8.732;2023-03-04T08:13:46;71.28;;;28.35;;
33830;SDS011;20137;48.834;8.732;2023-03-04T08:16:12;67.03;;;28.08;;
33830;SDS011;20137;48.834;8.732;2023-03-04T08:18:43;66.05;;;28.45;;
33830;SDS011;20137;48.834;8.732;2023-03-04T08:21:11;68.32;;;28.02;;
33830;SDS011;20137;48.834;8.732;2023-03-04T08:23:37;63.65;;;27.60;;
33830;SDS011;20137;48.834;8.732;2023-03-04T08:26:07;64.97;;;28.45;;
33830;SDS011;20137;48.834;8.732;2023-03-04T08:28:42;66.47;;;27.33;;
33830;SDS011;20137;48.834;8.732;2023-03-04T08:31:09;62.15;;;28.08;;
33830;SDS011;20137;48.834;8.732;2023-03-04T08:33:39;63.65;;;27.70;;
33830;SDS011;20137;48.834;8.732;2023-03-04T08:36:04;62.13;;;28.95;;
33830;SDS011;20137;48.834;8.732;2023-03-04T08:38:31;63.92;;;27.80;;
33830;SDS011;20137;48.834;8.732;2023-03-04T08:40:56;67.57;;;27.77;;
33830;SDS011;20137;48.834;8.732;2023-03-04T08:43:23;64.35;;;28.33;;
33830;SDS011;20137;48.834;8.732;2023-03-04T08:45:51;65.15;;;27.85;;
33830;SDS011;20137;48.834;8.732;2023-03-04T08:48:18;69.35;;;28.98;;
33830;SDS011;20137;48.834;8.732;2023-03-04T08:50:44;64.65;;;28.30;;
33830;SDS011;20137;48.834;8.732;2023-03-04T08:53:11;68.20;;;29.35;;
33830;SDS011;20137;48.834;8.732;2023-03-04T08:55:38;67.88;;;28.95;;
33830;SDS011;20137;48.834;8.732;2023-03-04T08:58:05;75.03;;;29.92;;
33830;SDS011;20137;48.834;8.732;2023-03-04T09:00:31;65.15;;;30.42;;
33830;SDS011;20137;48.834;8.732;2023-03-04T09:02:58;71.20;;;31.08;;
33830;SDS011;20137;48.834;8.732;2023-03-04T09:05:24;75.10;;;32.13;;
33830;SDS011;20137;48.834;8.732;2023-03-04T09:07:49;69.70;;;31.73;;
33830;SDS011;20137;48.834;8.732;2023-03-04T09:10:15;72.35;;;31.88;;
33830;SDS011;20137;48.834;8.732;2023-03-04T09:12:41;72.07;;;33.20;;
33830;SDS011;20137;48.834;8.732;2023-03-04T09:15:07;73.03;;;32.45;;
33830;SDS011;20137;48.834;8.732;2023-03-04T09:17:33;81.30;;;34.90;;
33830;SDS011;20137;48.834;8.732;2023-03-04T09:19:59;71.78;;;34.42;;
33830;SDS011;20137;48.834;8.732;2023-03-04T09:22:25;73.68;;;33.38;;
33830;SDS011;20137;48.834;8.732;2023-03-04T09:24:50;76.13;;;34.47;;
33830;SDS011;20137;48.834;8.732;2023-03-04T09:27:16;75.35;;;34.35;;
33830;SDS011;20137;48.834;8.732;2023-03-04T09:29:41;77.35;;;34.28;;
33830;SDS011;20137;48.834;8.732;2023-03-04T09:32:08;71.43;;;33.35;;
33830;SDS011;20137;48.834;8.732;2023-03-04T09:34:34;79.03;;;34.78;;
33830;SDS011;20137;48.834;8.732;2023-03-04T09:37:00;77.70;;;33.90;;
33830;SDS011;20137;48.834;8.732;2023-03-04T09:39:25;75.90;;;34.80;;
33830;SDS011;20137;48.834;8.732;2023-03-04T09:41:52;73.90;;;32.15;;
33830;SDS011;20137;48.834;8.732;2023-03-04T09:46:53;78.72;;;34.97;;
33830;SDS011;20137;48.834;8.732;2023-03-04T09:49:22;100.35;;;42.17;;
33830;SDS011;20137;48.834;8.732;2023-03-04T09:54:44;104.65;;;43.45;;
33830;SDS011;20137;48.834;8.732;2023-03-04T10:00:12;78.07;;;34.92;;
33830;SDS011;20137;48.834;8.732;2023-03-04T10:05:11;78.50;;;35.85;;
33830;SDS011;20137;48.834;8.732;2023-03-04T10:07:45;83.55;;;36.67;;
33830;SDS011;20137;48.834;8.732;2023-03-04T10:10:15;81.28;;;37.47;;
33830;SDS011;20137;48.834;8.732;2023-03-04T10:12:48;84.22;;;35.67;;
33830;SDS011;20137;48.834;8.732;2023-03-04T10:18:02;79.00;;;36.95;;
33830;SDS011;20137;48.834;8.732;2023-03-04T10:23:24;81.70;;;36.70;;
33830;SDS011;20137;48.834;8.732;2023-03-04T10:25:51;83.88;;;37.45;;
33830;SDS011;20137;48.834;8.732;2023-03-04T10:28:23;81.63;;;36.17;;
33830;SDS011;20137;48.834;8.732;2023-03-04T10:33:44;77.63;;;35.40;;
33830;SDS011;20137;48.834;8.732;2023-03-04T10:36:17;76.40;;;35.17;;
33830;SDS011;20137;48.834;8.732;2023-03-04T10:38:57;71.07;;;33.75;;
33830;SDS011;20137;48.834;8.732;2023-03-04T10:41:26;79.43;;;35.90;;
33830;SDS011;20137;48.834;8.732;2023-03-04T10:44:00;77.85;;;35.88;;
33830;SDS011;20137;48.834;8.732;2023-03-04T10:46:35;78.68;;;34.60;;
33830;SDS011;20137;48.834;8.732;2023-03-04T10:49:05;83.30;;;35.33;;
33830;SDS011;20137;48.834;8.732;2023-03-04T10:51:31;77.80;;;34.83;;
33830;SDS011;20137;48.834;8.732;2023-03-04T10:54:06;75.75;;;33.65;;
33830;SDS011;20137;48.834;8.732;2023-03-04T10:56:46;77.60;;;36.28;;
33830;SDS011;20137;48.834;8.732;2023-03-04T11:01:49;75.60;;;35.17;;
33830;SDS011;20137;48.834;8.732;2023-03-04T11:04:17;77.30;;;34.50;;
33830;SDS011;20137;48.834;8.732;2023-03-04T11:06:42;78.45;;;34.10;;
33830;SDS011;20137;48.834;8.732;2023-03-04T11:09:19;79.78;;;34.03;;
33830;SDS011;20137;48.834;8.732;2023-03-04T11:11:46;77.10;;;34.83;;
33830;SDS011;20137;48.834;8.732;2023-03-04T11:14:37;74.95;;;35.30;;
33830;SDS011;20137;48.834;8.732;2023-03-04T11:17:20;80.55;;;34.83;;
33830;SDS011;20137;48.834;8.732;2023-03-04T11:22:47;81.85;;;38.10;;
33830;SDS011;20137;48.834;8.732;2023-03-04T11:25:19;86.88;;;37.05;;
33830;SDS011;20137;48.834;8.732;2023-03-04T11:28:13;79.97;;;35.50;;
33830;SDS011;20137;48.834;8.732;2023-03-04T11:30:58;76.25;;;33.70;;
33830;SDS011;20137;48.834;8.732;2023-03-04T11:33:49;77.90;;;35.67;;
33830;SDS011;20137;48.834;8.732;2023-03-04T11:39:15;82.55;;;34.70;;
33830;SDS011;20137;48.834;8.732;2023-03-04T11:41:58;80.20;;;34.38;;
33830;SDS011;20137;48.834;8.732;2023-03-04T11:44:29;79.28;;;34.05;;
33830;SDS011;20137;48.834;8.732;2023-03-04T11:46:59;77.93;;;33.10;;
33830;SDS011;20137;48.834;8.732;2023-03-04T12:01:36;70.50;;;31.27;;
33830;SDS011;20137;48.834;8.732;2023-03-04T12:04:30;70.30;;;31.55;;
33830;SDS011;20137;48.834;8.732;2023-03-04T12:07:18;74.03;;;30.75;;
33830;SDS011;20137;48.834;8.732;2023-03-04T12:12:52;73.47;;;33.10;;
33830;SDS011;20137;48.834;8.732;2023-03-04T12:15:28;73.97;;;33.35;;
33830;SDS011;20137;48.834;8.732;2023-03-04T12:27:03;75.50;;;33.55;;
33830;SDS011;20137;48.834;8.732;2023-03-04T12:30:32;75.40;;;32.97;;
33830;SDS011;20137;48.834;8.732;2023-03-04T12:32:52;68.72;;;31.77;;
33830;SDS011;20137;48.834;8.732;2023-03-04T12:35:36;75.47;;;33.05;;
33830;SDS011;20137;48.834;8.732;2023-03-04T12:43:41;78.10;;;31.50;;
33830;SDS011;20137;48.834;8.732;2023-03-04T12:51:50;79.47;;;32.10;;
33830;SDS011;20137;48.834;8.732;2023-03-04T12:54:42;79.75;;;31.02;;
33830;SDS011;20137;48.834;8.732;2023-03-04T12:57:17;74.35;;;31.05;;
33830;SDS011;20137;48.834;8.732;2023-03-04T13:02:26;72.60;;;30.77;;
33830;SDS011;20137;48.834;8.732;2023-03-04T13:05:23;82.68;;;31.48;;
33830;SDS011;20137;48.834;8.732;2023-03-04T13:08:10;79.68;;;31.58;;
33830;SDS011;20137;48.834;8.732;2023-03-04T13:11:01;71.90;;;29.88;;
33830;SDS011;20137;48.834;8.732;2023-03-04T13:13:49;73.32;;;30.00;;
33830;SDS011;20137;48.834;8.732;2023-03-04T13:18:58;71.72;;;29.27;;
33830;SDS011;20137;48.834;8.732;2023-03-04T13:21:24;68.53;;;29.38;;
33830;SDS011;20137;48.834;8.732;2023-03-04T13:23:55;65.15;;;29.40;;
33830;SDS011;20137;48.834;8.732;2023-03-04T13:26:32;71.13;;;30.08;;
33830;SDS011;20137;48.834;8.732;2023-03-04T13:29:09;73.38;;;29.13;;
33830;SDS011;20137;48.834;8.732;2023-03-04T13:31:59;61.15;;;27.35;;
33830;SDS011;20137;48.834;8.732;2023-03-04T13:34:43;66.47;;;27.88;;
33830;SDS011;20137;48.834;8.732;2023-03-04T13:37:24;64.70;;;26.65;;
33830;SDS011;20137;48.834;8.732;2023-03-04T13:42:47;65.45;;;25.73;;
33830;SDS011;20137;48.834;8.732;2023-03-04T13:45:33;69.53;;;25.67;;
33830;SDS011;20137;48.834;8.732;2023-03-04T13:47:59;73.47;;;27.65;;
33830;SDS011;20137;48.834;8.732;2023-03-04T13:50:33;70.15;;;27.52;;
33830;SDS011;20137;48.834;8.732;2023-03-04T13:56:01;73.00;;;27.02;;
33830;SDS011;20137;48.834;8.732;2023-03-04T13:58:35;73.75;;;27.52;;
33830;SDS011;20137;48.834;8.732;2023-03-04T14:01:01;72.30;;;26.02;;
33830;SDS011;20137;48.834;8.732;2023-03-04T14:03:28;75.05;;;25.90;;
33830;SDS011;20137;48.834;8.732;2023-03-04T14:08:39;64.63;;;26.80;;
33830;SDS011;20137;48.834;8.732;2023-03-04T14:11:09;74.53;;;26.35;;
33830;SDS011;20137;48.834;8.732;2023-03-04T14:14:04;73.03;;;28.77;;
33830;SDS011;20137;48.834;8.732;2023-03-04T14:16:38;68.70;;;27.00;;
33830;SDS011;20137;48.834;8.732;2023-03-04T14:19:13;69.55;;;27.35;;
33830;SDS011;20137;48.834;8.732;2023-03-04T14:25:06;75.53;;;29.42;;
33830;SDS011;20137;48.834;8.732;2023-03-04T14:27:49;69.32;;;27.85;;
33830;SDS011;20137;48.834;8.732;2023-03-04T14:30:26;75.22;;;26.85;;
33830;SDS011;20137;48.834;8.732;2023-03-04T14:32:53;75.45;;;28.52;;
33830;SDS011;20137;48.834;8.732;2023-03-04T14:35:23;79.85;;;29.08;;
33830;SDS011;20137;48.834;8.732;2023-03-04T14:37:55;74.85;;;27.70;;
33830;SDS011;20137;48.834;8.732;2023-03-04T14:40:26;76.88;;;28.75;;
33830;SDS011;20137;48.834;8.732;2023-03-04T14:42:56;79.13;;;28.77;;
33830;SDS011;20137;48.834;8.732;2023-03-04T14:45:35;67.50;;;27.58;;
33830;SDS011;20137;48.834;8.732;2023-03-04T14:48:03;69.78;;;27.52;;
33830;SDS011;20137;48.834;8.732;2023-03-04T14:50:31;72.40;;;27.73;;
33830;SDS011;20137;48.834;8.732;2023-03-04T14:55:32;71.32;;;27.95;;
33830;SDS011;20137;48.834;8.732;2023-03-04T14:58:08;84.10;;;27.88;;
33830;SDS011;20137;48.834;8.732;2023-03-04T15:00:44;70.00;;;28.08;;
33830;SDS011;20137;48.834;8.732;2023-03-04T15:05:53;76.63;;;29.15;;
33830;SDS011;20137;48.834;8.732;2023-03-04T15:08:29;72.15;;;27.92;;
33830;SDS011;20137;48.834;8.732;2023-03-04T15:11:02;71.55;;;25.98;;
33830;SDS011;20137;48.834;8.732;2023-03-04T15:13:42;67.28;;;27.17;;
33830;SDS011;20137;48.834;8.732;2023-03-04T15:16:09;66.75;;;27.30;;
33830;SDS011;20137;48.834;8.732;2023-03-04T15:18:37;73.32;;;28.25;;
33830;SDS011;20137;48.834;8.732;2023-03-04T15:23:43;70.68;;;26.75;;
33830;SDS011;20137;48.834;8.732;2023-03-04T15:26:09;70.57;;;25.90;;
33830;SDS011;20137;48.834;8.732;2023-03-04T15:28:37;69.00;;;27.08;;
33830;SDS011;20137;48.834;8.732;2023-03-04T15:31:04;71.47;;;27.50;;
33830;SDS011;20137;48.834;8.732;2023-03-04T15:33:37;76.60;;;26.88;;
33830;SDS011;20137;48.834;8.732;2023-03-04T15:36:03;68.57;;;26.23;;
33830;SDS011;20137;48.834;8.732;2023-03-04T15:38:29;72.32;;;27.70;;
33830;SDS011;20137;48.834;8.732;2023-03-04T15:40:55;72.53;;;25.58;;
33830;SDS011;20137;48.834;8.732;2023-03-04T15:43:23;78.72;;;27.27;;
33830;SDS011;20137;48.834;8.732;2023-03-04T15:45:49;69.60;;;26.20;;
33830;SDS011;20137;48.834;8.732;2023-03-04T15:48:17;76.22;;;27.20;;
33830;SDS011;20137;48.834;8.732;2023-03-04T15:50:44;71.03;;;26.17;;
33830;SDS011;20137;48.834;8.732;2023-03-04T15:53:27;57.90;;;24.33;;
33830;SDS011;20137;48.834;8.732;2023-03-04T15:56:04;69.18;;;24.98;;
33830;SDS011;20137;48.834;8.732;2023-03-04T15:58:33;80.18;;;25.77;;